This is the latest recevied weather packets stored in our database for station/object ALAKES. If no packets are shown the sender has not sent any weather packets the latest 10 day(s).
| Time | Temp. | Humidity | Pressure | Rain* | Wind** | Luminosity | Snow |
|---|---|---|---|---|---|---|---|
| 1787833878 | 14.44° C | 33% | - | 0 mm | - | - | - |
| 1787833754 | 14.44° C | 33% | - | 0 mm | - | - | - |
| 1787833124 | 15° C | 32% | - | 0 mm | - | - | - |
| 1787832500 | 15° C | 31% | - | 0 mm | - | - | - |
| 1787831872 | 15° C | 31% | - | 0 mm | - | - | - |
| 1787831248 | 15° C | 31% | - | 0 mm | - | - | - |
| 1787830627 | 14.44° C | 33% | - | 0 mm | - | - | - |
| 1787830007 | 14.44° C | 34% | - | 0 mm | - | - | - |
| 1787829371 | 14.44° C | 37% | - | 0 mm | - | - | - |
| 1787828751 | 15° C | 36% | - | 0 mm | - | - | - |
| 1787828122 | 15° C | 34% | - | 0 mm | - | - | - |
| 1787827496 | 15° C | 34% | - | 0 mm | - | - | - |
| 1787826868 | 14.44° C | 38% | - | 0 mm | - | - | - |
| 1787826244 | 13.89° C | 41% | - | 0 mm | - | - | - |
| 1787825616 | 13.89° C | 41% | - | 0 mm | - | - | - |
| 1787824992 | 14.44° C | 39% | - | 0 mm | - | - | - |
| 1787824361 | 15° C | 38% | - | 0 mm | - | - | - |
| 1787823739 | 16.11° C | 32% | - | 0 mm | - | - | - |
| 1787823113 | 16.67° C | 26% | - | 0 mm | - | - | - |
| 1787822485 | 16.11° C | 26% | - | 0 mm | - | - | - |
| 1787821863 | 15.56° C | 30% | - | 0 mm | - | - | - |
| 1787821244 | 15° C | 37% | - | 0 mm | - | - | - |
| 1787820616 | 15.56° C | 35% | - | 0 mm | - | - | - |
| 1787819990 | 16.11° C | 34% | - | 0 mm | - | - | - |
| 1787819358 | 16.11° C | 32% | - | 0 mm | - | - | - |
* Rain latest 24 hours (hover to see other rain measurements)
** Current wind speed in m/s (hover to see current wind gust speed)